createdAt,value
2017-10-17T00:00:59.397Z,86.00
2017-10-17T00:03:26.299Z,86.00
2017-10-17T00:05:53.186Z,85.80
2017-10-17T00:08:20.121Z,84.80
2017-10-17T00:10:47.007Z,84.70
2017-10-17T00:13:14.290Z,84.90
2017-10-17T00:15:41.218Z,84.90
2017-10-17T00:18:08.507Z,85.60
2017-10-17T00:20:35.398Z,85.60
2017-10-17T00:23:02.334Z,85.50
2017-10-17T00:25:29.222Z,85.60
2017-10-17T00:27:56.118Z,85.60
2017-10-17T00:30:27.662Z,85.70
2017-10-17T00:32:54.550Z,85.30
2017-10-17T00:35:26.325Z,85.20
2017-10-17T00:37:53.209Z,85.20
2017-10-17T00:40:20.097Z,85.20
2017-10-17T00:42:47.409Z,84.40
2017-10-17T00:45:14.303Z,84.40
2017-10-17T00:47:41.585Z,85.00
2017-10-17T00:50:08.541Z,85.00
2017-10-17T00:52:35.425Z,85.30
2017-10-17T00:55:02.317Z,85.70
2017-10-17T00:57:29.238Z,85.80
2017-10-17T00:59:56.534Z,86.20
2017-10-17T01:02:23.417Z,86.20
2017-10-17T01:04:50.338Z,86.20
2017-10-17T01:07:17.250Z,86.00
2017-10-17T01:09:44.146Z,85.30
2017-10-17T01:12:11.082Z,86.00
2017-10-17T01:14:37.970Z,86.20
2017-10-17T01:17:05.269Z,85.70
2017-10-17T01:19:32.190Z,85.70
2017-10-17T01:21:59.074Z,85.80
2017-10-17T01:24:25.963Z,85.60
2017-10-17T01:26:53.278Z,85.80
2017-10-17T01:29:20.990Z,85.80
2017-10-17T01:31:48.423Z,85.70
2017-10-17T01:34:25.694Z,85.60
2017-10-17T01:36:52.586Z,85.60
2017-10-17T01:39:19.474Z,85.40
2017-10-17T01:41:46.394Z,85.20
2017-10-17T01:44:23.859Z,85.10
2017-10-17T01:46:50.785Z,85.20
2017-10-17T01:49:20.510Z,85.20
2017-10-17T01:51:47.802Z,85.20
2017-10-17T01:54:16.438Z,85.20
2017-10-17T01:56:43.338Z,85.40
2017-10-17T01:59:10.996Z,85.50
2017-10-17T02:01:37.927Z,85.70
2017-10-17T02:04:04.813Z,85.60
2017-10-17T02:06:31.690Z,85.30
2017-10-17T02:08:59.015Z,84.80
2017-10-17T02:11:25.902Z,84.80
2017-10-17T02:13:53.177Z,85.00
2017-10-17T02:16:21.565Z,85.00
2017-10-17T02:18:52.294Z,85.40
2017-10-17T02:21:22.816Z,85.60
2017-10-17T02:23:49.698Z,85.20
2017-10-17T02:26:16.585Z,85.40
2017-10-17T02:31:35.003Z,85.40
2017-10-17T02:34:04.565Z,85.40
2017-10-17T02:36:31.848Z,85.10
2017-10-17T02:38:58.729Z,85.10
2017-10-17T02:41:25.661Z,85.20
2017-10-17T02:43:55.193Z,84.90
2017-10-17T02:46:22.081Z,84.50
2017-10-17T02:48:51.647Z,84.30
2017-10-17T02:51:18.530Z,84.50
2017-10-17T02:53:45.815Z,85.10
2017-10-17T02:56:12.743Z,85.20
2017-10-17T02:58:39.626Z,85.40
2017-10-17T03:01:08.309Z,85.30
2017-10-17T03:03:36.777Z,85.10
2017-10-17T03:06:03.657Z,84.90
2017-10-17T03:08:30.547Z,85.00
2017-10-17T03:10:57.480Z,85.10
2017-10-17T03:13:25.545Z,85.00
2017-10-17T03:15:54.645Z,84.80
2017-10-17T03:18:21.954Z,84.70
2017-10-17T03:20:48.834Z,84.70
2017-10-17T03:23:17.678Z,84.70
2017-10-17T03:25:44.606Z,84.70
2017-10-17T03:28:14.251Z,84.70
2017-10-17T03:30:41.142Z,84.70
2017-10-17T03:33:16.261Z,84.40
2017-10-17T03:35:43.206Z,84.40
2017-10-17T03:41:07.457Z,84.60
2017-10-17T03:43:40.325Z,84.80
2017-10-17T03:46:07.201Z,84.90
2017-10-17T03:48:34.089Z,85.10
2017-10-17T03:51:03.658Z,85.40
2017-10-17T03:53:51.161Z,85.30
2017-10-17T03:56:21.717Z,85.20
2017-10-17T03:58:48.611Z,85.10
2017-10-17T04:01:15.495Z,84.40
2017-10-17T04:06:44.742Z,85.40
2017-10-17T04:09:11.665Z,85.40
2017-10-17T04:11:38.954Z,85.30
2017-10-17T04:14:07.633Z,85.30
2017-10-17T04:16:39.138Z,85.40
2017-10-17T04:22:24.373Z,85.50
2017-10-17T04:25:06.874Z,85.40
2017-10-17T04:30:50.946Z,85.20
2017-10-17T04:33:34.398Z,85.00
2017-10-17T04:38:56.042Z,85.30
2017-10-17T04:41:23.096Z,85.50
2017-10-17T04:44:11.921Z,85.60
2017-10-17T04:46:49.882Z,85.30
2017-10-17T04:49:20.739Z,85.30
2017-10-17T04:52:10.069Z,85.30
2017-10-17T04:54:41.442Z,85.40
2017-10-17T04:57:12.095Z,85.20
2017-10-17T05:03:06.039Z,84.80
2017-10-17T05:05:40.614Z,84.90
2017-10-17T05:08:19.574Z,84.70
2017-10-17T05:11:05.438Z,85.60
2017-10-17T05:16:32.242Z,85.80
2017-10-17T05:19:00.651Z,85.80
2017-10-17T05:21:27.531Z,85.70
2017-10-17T05:24:00.182Z,85.90
2017-10-17T05:26:27.085Z,86.00
2017-10-17T05:28:55.675Z,85.50
2017-10-17T05:31:22.606Z,85.60
2017-10-17T05:33:56.430Z,85.70
2017-10-17T05:36:28.839Z,85.70
2017-10-17T05:38:55.725Z,85.70
2017-10-17T05:41:22.650Z,84.80
2017-10-17T05:46:53.160Z,85.10
2017-10-17T05:49:22.075Z,85.40
2017-10-17T05:51:48.977Z,85.50
2017-10-17T05:54:16.318Z,85.70
2017-10-17T05:56:43.265Z,85.70
2017-10-17T05:59:10.152Z,85.50
2017-10-17T06:01:37.039Z,85.40
2017-10-17T06:04:03.998Z,85.10
2017-10-17T06:06:30.886Z,85.10
2017-10-17T06:08:57.833Z,85.00
2017-10-17T06:11:24.757Z,85.00
2017-10-17T06:13:52.135Z,84.50
2017-10-17T06:16:19.035Z,84.50
2017-10-17T06:18:45.985Z,84.50
2017-10-17T06:21:12.874Z,84.90
2017-10-17T06:23:39.774Z,85.20
2017-10-17T06:26:06.717Z,85.40
2017-10-17T06:28:33.674Z,85.60
2017-10-17T06:31:00.567Z,85.40
2017-10-17T06:33:27.469Z,85.10
2017-10-17T06:35:54.409Z,85.20
2017-10-17T06:38:21.310Z,85.20
2017-10-17T06:40:48.304Z,85.20
2017-10-17T06:43:15.258Z,84.90
2017-10-17T06:45:42.544Z,84.80
2017-10-17T06:48:09.425Z,84.80
2017-10-17T06:50:36.390Z,84.80
2017-10-17T06:53:03.289Z,84.80
2017-10-17T06:55:30.174Z,84.80
2017-10-17T06:57:57.090Z,84.50
2017-10-17T07:00:23.978Z,84.50
2017-10-17T07:02:50.863Z,84.50
2017-10-17T07:05:17.865Z,84.60
2017-10-17T07:07:44.753Z,84.20
2017-10-17T07:10:11.650Z,84.40
2017-10-17T07:12:38.592Z,84.60
2017-10-17T07:15:05.482Z,84.80
2017-10-17T07:17:32.393Z,85.20
2017-10-17T07:19:59.334Z,85.40
2017-10-17T07:22:26.217Z,85.50
2017-10-17T07:24:53.114Z,85.90
2017-10-17T07:27:20.128Z,86.20
2017-10-17T07:29:47.068Z,86.50
2017-10-17T07:32:13.969Z,86.50
2017-10-17T07:34:40.889Z,86.30
2017-10-17T07:37:07.777Z,85.80
2017-10-17T07:39:34.663Z,85.60
2017-10-17T07:42:01.982Z,85.50
2017-10-17T07:44:28.866Z,85.50
2017-10-17T07:46:55.759Z,85.60
2017-10-17T07:49:22.674Z,85.30
2017-10-17T07:51:49.553Z,85.10
2017-10-17T07:54:16.442Z,85.20
2017-10-17T07:56:43.759Z,85.10
2017-10-17T07:59:10.661Z,85.10
2017-10-17T08:01:37.545Z,85.10
2017-10-17T08:04:04.474Z,85.00
2017-10-17T08:06:31.363Z,84.90
2017-10-17T08:08:58.245Z,84.60
2017-10-17T08:11:25.172Z,84.50
2017-10-17T08:13:52.501Z,84.30
2017-10-17T08:16:19.382Z,84.30
2017-10-17T08:18:46.294Z,84.40
2017-10-17T08:21:13.242Z,84.40
2017-10-17T08:23:40.185Z,84.40
2017-10-17T08:26:07.116Z,84.10
2017-10-17T08:28:34.077Z,83.90
2017-10-17T08:31:01.066Z,84.00
2017-10-17T08:33:28.095Z,84.10
2017-10-17T08:35:55.426Z,84.40
2017-10-17T08:38:22.319Z,84.40
2017-10-17T08:40:49.233Z,84.20
2017-10-17T08:43:16.578Z,84.00
2017-10-17T08:45:43.669Z,84.00
2017-10-17T08:48:10.672Z,83.80
2017-10-17T08:50:37.560Z,83.90
2017-10-17T08:53:04.465Z,84.00
2017-10-17T08:55:31.386Z,84.30
2017-10-17T08:57:58.299Z,84.30
2017-10-17T09:00:25.245Z,84.20
2017-10-17T09:02:52.261Z,83.80
2017-10-17T09:05:19.214Z,83.70
2017-10-17T09:07:46.506Z,83.80
2017-10-17T09:10:13.502Z,83.80
2017-10-17T09:12:40.386Z,83.80
2017-10-17T09:15:07.301Z,83.60
2017-10-17T09:17:34.650Z,83.40
2017-10-17T09:20:01.600Z,83.40
2017-10-17T09:22:28.491Z,83.00
2017-10-17T09:24:55.510Z,82.90
2017-10-17T09:27:22.495Z,83.10
2017-10-17T09:29:49.501Z,83.10
2017-10-17T09:32:16.448Z,83.20
2017-10-17T09:34:43.335Z,83.10
2017-10-17T09:37:10.250Z,83.00
2017-10-17T09:39:37.530Z,83.00
2017-10-17T09:42:04.417Z,83.00
2017-10-17T09:44:31.386Z,82.90
2017-10-17T09:46:58.335Z,82.80
2017-10-17T09:49:25.284Z,82.20
2017-10-17T09:51:52.676Z,82.40
2017-10-17T09:54:19.582Z,82.40
2017-10-17T09:56:46.521Z,82.10
2017-10-17T09:59:13.475Z,82.20
2017-10-17T10:01:40.370Z,82.00
2017-10-17T10:04:07.268Z,81.70
2017-10-17T10:06:34.190Z,81.10
2017-10-17T10:09:01.078Z,80.60
2017-10-17T10:11:28.353Z,79.10
2017-10-17T10:13:55.402Z,79.10
2017-10-17T10:16:22.307Z,77.20
2017-10-17T10:18:49.186Z,77.50
2017-10-17T10:21:16.108Z,78.00
2017-10-17T10:23:43.454Z,78.60
2017-10-17T10:26:10.437Z,78.60
2017-10-17T10:28:37.361Z,78.50
2017-10-17T10:31:04.726Z,77.80
2017-10-17T10:33:32.011Z,77.90
2017-10-17T10:35:59.018Z,77.90
2017-10-17T10:38:25.967Z,77.90
2017-10-17T10:40:52.853Z,77.70
2017-10-17T10:43:19.769Z,76.90
2017-10-17T10:45:47.114Z,76.70
2017-10-17T10:48:14.003Z,76.70
2017-10-17T10:50:40.997Z,77.10
2017-10-17T10:53:07.950Z,76.90
2017-10-17T10:55:34.838Z,77.00
2017-10-17T10:58:01.837Z,76.60
2017-10-17T11:00:28.723Z,77.20
2017-10-17T11:02:55.605Z,77.20
2017-10-17T11:05:22.556Z,77.00
2017-10-17T11:07:49.464Z,76.80
2017-10-17T11:10:16.366Z,76.90
2017-10-17T11:12:43.299Z,76.90
2017-10-17T11:15:10.267Z,76.40
2017-10-17T11:17:37.160Z,76.40
2017-10-17T11:20:04.146Z,75.90
2017-10-17T11:22:31.040Z,74.90
2017-10-17T11:24:57.939Z,74.50
2017-10-17T11:27:24.890Z,75.10
2017-10-17T11:29:51.776Z,75.10
2017-10-17T11:32:18.667Z,74.90
2017-10-17T11:34:45.650Z,75.40
2017-10-17T11:37:12.938Z,75.30
2017-10-17T11:39:39.935Z,75.30
2017-10-17T11:42:18.879Z,75.10
2017-10-17T11:44:46.173Z,74.40
2017-10-17T11:47:13.053Z,74.40
2017-10-17T11:49:40.030Z,73.50
2017-10-17T11:52:07.317Z,74.20
2017-10-17T11:54:34.201Z,74.20
2017-10-17T11:57:01.146Z,73.60
2017-10-17T11:59:28.105Z,73.30
2017-10-17T12:01:54.997Z,72.60
2017-10-17T12:04:21.928Z,73.40
2017-10-17T12:06:48.851Z,73.30
2017-10-17T12:09:15.742Z,73.20
2017-10-17T12:11:42.674Z,71.70
2017-10-17T12:14:09.574Z,71.80
2017-10-17T12:16:36.573Z,71.90
2017-10-17T12:19:03.497Z,72.10
2017-10-17T12:21:30.782Z,71.80
2017-10-17T12:23:57.698Z,71.80
2017-10-17T12:26:25.138Z,70.30
2017-10-17T12:28:52.026Z,70.30
2017-10-17T12:31:18.910Z,70.50
2017-10-17T12:33:45.852Z,69.90
2017-10-17T12:36:12.742Z,70.00
2017-10-17T12:38:40.018Z,69.80
2017-10-17T12:41:07.018Z,69.80
2017-10-17T12:43:33.974Z,70.00
2017-10-17T12:46:01.325Z,70.20
2017-10-17T12:48:28.254Z,70.20
2017-10-17T12:50:55.142Z,69.50
2017-10-17T12:53:22.062Z,69.00
2017-10-17T12:55:48.989Z,68.50
2017-10-17T12:58:15.878Z,69.10
2017-10-17T13:00:42.838Z,68.50
2017-10-17T13:03:09.841Z,68.80
2017-10-17T13:05:36.790Z,68.70
2017-10-17T13:08:03.781Z,68.40
2017-10-17T13:10:30.710Z,68.40
2017-10-17T13:12:57.996Z,68.20
2017-10-17T13:15:24.893Z,68.20
2017-10-17T13:17:52.209Z,68.80
2017-10-17T13:20:19.094Z,68.80
2017-10-17T13:22:46.375Z,67.90
2017-10-17T13:25:13.298Z,67.90
2017-10-17T13:27:40.587Z,66.70
2017-10-17T13:30:07.488Z,66.70
2017-10-17T13:32:34.450Z,67.40
2017-10-17T13:35:01.343Z,66.90
2017-10-17T13:37:28.230Z,67.00
2017-10-17T13:39:55.161Z,67.20
2017-10-17T13:42:22.155Z,66.40
2017-10-17T13:44:49.059Z,66.40
2017-10-17T13:47:15.981Z,66.40
2017-10-17T13:49:42.874Z,67.00
2017-10-17T13:52:10.155Z,66.80
2017-10-17T13:54:37.154Z,66.80
2017-10-17T13:57:04.034Z,66.90
2017-10-17T13:59:30.950Z,67.00
2017-10-17T14:01:57.890Z,67.30
2017-10-17T14:04:24.861Z,67.30
2017-10-17T14:06:52.195Z,67.20
2017-10-17T14:09:19.129Z,67.20
2017-10-17T14:11:46.022Z,66.40
2017-10-17T14:14:12.905Z,66.60
2017-10-17T14:16:39.839Z,65.90
2017-10-17T14:19:06.726Z,65.40
2017-10-17T14:21:33.605Z,65.00
2017-10-17T14:24:00.534Z,65.70
2017-10-17T14:26:27.865Z,66.90
2017-10-17T14:28:54.751Z,66.90
2017-10-17T14:31:21.672Z,65.60
2017-10-17T14:33:48.558Z,66.20
2017-10-17T14:36:15.456Z,67.10
2017-10-17T14:38:42.509Z,67.20
2017-10-17T14:41:09.462Z,66.70
2017-10-17T14:43:36.346Z,66.40
2017-10-17T14:46:03.341Z,66.90
2017-10-17T14:48:30.294Z,67.80
2017-10-17T14:50:57.253Z,67.60
2017-10-17T14:53:24.698Z,68.20
2017-10-17T14:55:51.584Z,68.00
2017-10-17T14:58:18.493Z,67.40
2017-10-17T15:00:45.416Z,67.50
2017-10-17T15:03:12.315Z,67.50
2017-10-17T15:05:39.243Z,68.10
2017-10-17T15:08:06.581Z,68.30
2017-10-17T15:10:33.529Z,68.30
2017-10-17T15:13:00.472Z,68.60
2017-10-17T15:15:27.430Z,69.00
2017-10-17T15:17:54.370Z,69.00
2017-10-17T15:20:21.277Z,69.80
2017-10-17T15:22:48.342Z,70.00
2017-10-17T15:25:15.313Z,69.80
2017-10-17T15:27:42.297Z,70.20
2017-10-17T15:30:09.309Z,70.40
2017-10-17T15:32:36.246Z,70.40
2017-10-17T15:35:03.134Z,70.60
2017-10-17T15:37:30.063Z,70.60
2017-10-17T15:39:57.339Z,70.90
2017-10-17T15:42:24.249Z,70.90
2017-10-17T15:44:51.170Z,71.00
2017-10-17T15:47:18.062Z,70.90
2017-10-17T15:49:45.393Z,71.40
2017-10-17T15:52:12.357Z,71.40
2017-10-17T15:54:39.694Z,71.80
2017-10-17T15:57:06.647Z,71.80
2017-10-17T15:59:33.586Z,72.20
2017-10-17T16:02:00.494Z,72.20
2017-10-17T16:04:27.424Z,72.30
2017-10-17T16:06:54.333Z,73.20
2017-10-17T16:09:21.277Z,73.10
2017-10-17T16:11:48.217Z,73.10
2017-10-17T16:14:15.165Z,73.30
2017-10-17T16:16:42.053Z,74.20
2017-10-17T16:19:08.938Z,74.00
2017-10-17T16:21:35.902Z,73.70
2017-10-17T16:24:02.801Z,73.90
2017-10-17T16:26:29.697Z,74.80
2017-10-17T16:28:56.619Z,75.80
2017-10-17T16:31:23.502Z,76.70
2017-10-17T16:33:50.382Z,77.20
2017-10-17T16:36:17.297Z,77.50
2017-10-17T16:38:44.646Z,77.50
2017-10-17T16:41:11.538Z,77.50
2017-10-17T16:43:38.532Z,77.20
2017-10-17T16:46:05.479Z,77.30
2017-10-17T16:48:32.367Z,77.80
2017-10-17T16:50:59.369Z,77.30
2017-10-17T16:53:26.330Z,78.00
2017-10-17T16:55:53.617Z,77.80
2017-10-17T16:58:20.622Z,77.80
2017-10-17T17:00:47.510Z,78.20
2017-10-17T17:03:14.413Z,78.50
2017-10-17T17:05:41.354Z,78.40
2017-10-17T17:08:08.305Z,78.60
2017-10-17T17:10:35.250Z,78.70
2017-10-17T17:13:02.169Z,78.80
2017-10-17T17:15:29.055Z,79.10
2017-10-17T17:17:56.400Z,79.60
2017-10-17T17:20:23.331Z,79.60
2017-10-17T17:22:50.289Z,79.60
2017-10-17T17:25:17.178Z,80.00
2017-10-17T17:27:44.186Z,80.40
2017-10-17T17:30:11.079Z,80.70
2017-10-17T17:32:38.002Z,80.70
2017-10-17T17:35:05.322Z,80.30
2017-10-17T17:37:32.287Z,80.30
2017-10-17T17:39:59.175Z,80.30
2017-10-17T17:42:26.095Z,80.40
2017-10-17T17:44:53.378Z,80.50
2017-10-17T17:47:20.261Z,80.50
2017-10-17T17:49:47.181Z,80.20
2017-10-17T17:52:14.154Z,80.20
2017-10-17T17:54:41.034Z,80.30
2017-10-17T17:57:08.098Z,80.40
2017-10-17T17:59:34.981Z,80.40
2017-10-17T18:02:01.947Z,80.50
2017-10-17T18:04:28.874Z,80.30
2017-10-17T18:06:55.785Z,80.40
2017-10-17T18:09:22.683Z,80.60
2017-10-17T18:11:49.633Z,80.50
2017-10-17T18:14:16.579Z,80.50
2017-10-17T18:16:43.522Z,80.40
2017-10-17T18:19:10.463Z,80.40
2017-10-17T18:21:37.458Z,80.60
2017-10-17T18:24:04.403Z,80.60
2017-10-17T18:26:31.318Z,80.40
2017-10-17T18:28:58.640Z,80.60
2017-10-17T18:31:25.518Z,80.60
2017-10-17T18:33:52.838Z,80.50
2017-10-17T18:36:19.816Z,80.50
2017-10-17T18:38:47.128Z,80.70
2017-10-17T18:41:14.014Z,80.70
2017-10-17T18:43:40.958Z,80.90
2017-10-17T18:46:07.875Z,81.00
2017-10-17T18:48:34.845Z,81.00
2017-10-17T18:51:01.911Z,81.00
2017-10-17T18:53:29.194Z,81.10
2017-10-17T18:55:56.089Z,81.10
2017-10-17T18:58:23.007Z,81.10
2017-10-17T19:00:49.991Z,81.10
2017-10-17T19:03:16.894Z,81.20
2017-10-17T19:05:43.823Z,81.30
2017-10-17T19:08:10.707Z,81.40
2017-10-17T19:10:37.590Z,81.30
2017-10-17T19:13:04.931Z,81.30
2017-10-17T19:15:31.873Z,81.30
2017-10-17T19:17:58.762Z,81.50
2017-10-17T19:20:25.705Z,81.50
2017-10-17T19:22:52.589Z,81.60
2017-10-17T19:25:19.487Z,81.80
2017-10-17T19:30:24.097Z,81.80
2017-10-17T19:32:51.020Z,81.80
2017-10-17T19:35:17.944Z,81.70
2017-10-17T19:37:44.859Z,81.80
2017-10-17T19:40:12.191Z,81.60
2017-10-17T19:42:39.153Z,81.60
2017-10-17T19:45:06.475Z,81.70
2017-10-17T19:47:33.443Z,81.70
2017-10-17T19:50:00.339Z,81.60
2017-10-17T19:52:27.348Z,81.70
2017-10-17T19:54:54.636Z,82.00
2017-10-17T19:57:21.518Z,82.00
2017-10-17T19:59:48.461Z,82.00
2017-10-17T20:02:15.354Z,82.20
2017-10-17T20:04:42.262Z,81.90
2017-10-17T20:07:09.207Z,81.80
2017-10-17T20:09:36.094Z,81.70
2017-10-17T20:12:02.991Z,81.80
2017-10-17T20:14:29.942Z,82.00
2017-10-17T20:16:56.834Z,82.00
2017-10-17T20:19:23.738Z,81.90
2017-10-17T20:21:50.678Z,82.20
2017-10-17T20:24:17.562Z,82.20
2017-10-17T20:26:44.851Z,82.40
2017-10-17T20:29:11.786Z,82.40
2017-10-17T20:31:38.678Z,82.70
2017-10-17T20:34:05.567Z,82.80
2017-10-17T20:36:32.491Z,82.80
2017-10-17T20:38:59.778Z,83.10
2017-10-17T20:41:26.675Z,83.10
2017-10-17T20:43:53.629Z,83.00
2017-10-17T20:46:20.918Z,82.80
2017-10-17T20:48:47.815Z,82.80
2017-10-17T20:51:14.734Z,82.90
2017-10-17T20:53:41.625Z,82.40
2017-10-17T20:56:08.914Z,82.50
2017-10-17T20:58:35.839Z,82.50
2017-10-17T21:01:02.757Z,83.00
2017-10-17T21:03:29.702Z,83.30
2017-10-17T21:05:56.652Z,83.10
2017-10-17T21:08:23.542Z,82.90
2017-10-17T21:10:50.447Z,82.80
2017-10-17T21:13:17.361Z,82.80
2017-10-17T21:15:44.269Z,82.60
2017-10-17T21:18:11.150Z,83.20
2017-10-17T21:20:38.133Z,83.60
2017-10-17T21:23:05.418Z,83.80
2017-10-17T21:25:32.336Z,83.80
2017-10-17T21:27:59.663Z,82.70
2017-10-17T21:30:26.636Z,82.70
2017-10-17T21:32:53.919Z,82.90
2017-10-17T21:35:20.842Z,82.90
2017-10-17T21:37:48.130Z,83.40
2017-10-17T21:40:15.030Z,83.40
2017-10-17T21:42:41.954Z,83.90
2017-10-17T21:45:08.921Z,84.10
2017-10-17T21:47:36.283Z,83.80
2017-10-17T21:50:03.187Z,83.80
2017-10-17T21:52:30.077Z,83.40
2017-10-17T21:54:57.394Z,84.00
2017-10-17T21:57:24.365Z,84.00
2017-10-17T21:59:51.333Z,83.80
2017-10-17T22:02:18.634Z,83.60
2017-10-17T22:04:45.522Z,83.60
2017-10-17T22:07:12.865Z,83.70
2017-10-17T22:09:39.758Z,83.70
2017-10-17T22:12:06.641Z,83.90
2017-10-17T22:14:33.605Z,84.00
2017-10-17T22:17:00.505Z,84.30
2017-10-17T22:19:27.385Z,84.20
2017-10-17T22:21:54.306Z,84.30
2017-10-17T22:24:21.291Z,84.30
2017-10-17T22:26:48.187Z,84.40
2017-10-17T22:29:15.142Z,84.30
2017-10-17T22:31:42.024Z,84.30
2017-10-17T22:34:08.976Z,84.70
2017-10-17T22:36:35.902Z,84.40
2017-10-17T22:39:02.785Z,84.40
2017-10-17T22:41:30.121Z,84.60
2017-10-17T22:43:57.078Z,84.70
2017-10-17T22:46:24.362Z,84.40
2017-10-17T22:48:51.266Z,84.40
2017-10-17T22:51:18.186Z,84.90
2017-10-17T22:53:45.165Z,85.20
2017-10-17T22:56:12.102Z,85.70
2017-10-17T22:58:39.430Z,86.10
2017-10-17T23:01:06.406Z,86.10
2017-10-17T23:03:33.290Z,85.90
2017-10-17T23:06:00.306Z,85.70
2017-10-17T23:08:27.194Z,85.80
2017-10-17T23:10:54.094Z,85.80
2017-10-17T23:13:21.015Z,85.80
2017-10-17T23:15:47.994Z,85.70
2017-10-17T23:18:26.951Z,85.80
2017-10-17T23:20:53.850Z,85.80
2017-10-17T23:23:20.813Z,85.90
2017-10-17T23:25:47.739Z,85.50
2017-10-17T23:28:14.702Z,85.20
2017-10-17T23:30:41.593Z,85.20
2017-10-17T23:33:08.594Z,85.40
2017-10-17T23:35:35.538Z,85.70
2017-10-17T23:38:02.486Z,85.30
2017-10-17T23:40:29.430Z,83.70
2017-10-17T23:42:56.388Z,83.40
2017-10-17T23:45:23.279Z,83.30
2017-10-17T23:47:50.272Z,83.30
2017-10-17T23:50:17.218Z,84.40
2017-10-17T23:52:44.170Z,85.00
2017-10-17T23:55:11.114Z,84.60
2017-10-17T23:57:38.001Z,84.40
